Time;durP1;ratioP1;P1;durP2;ratioP2;P2;SDS_P1;SDS_P2;PMS_P1;PMS_P2;Temp;Humidity;BMP_temperature;BMP_pressure;BME280_temperature;BME280_humidity;BME280_pressure;Samples;Min_cycle;Max_cycle;Signal;HPM_P1;HPM_P2
2023/01/12 00:28:48;;;;;;;26.25;4.55;;;7.10;99.90;;;;;;4975563;28;20050;-83
2023/01/12 00:31:13;;;;;;;33.75;5.28;;;7.10;99.90;;;;;;4959646;28;20059;-83
2023/01/12 00:47:36;;;;;;;29.30;5.03;;;7.20;99.90;;;;;;4956991;29;20037;-83
2023/01/12 01:09:45;;;;;;;37.60;5.55;;;7.20;99.90;;;;;;5277584;23;20149;-83
2023/01/12 01:17:09;;;;;;;33.05;4.95;;;7.20;99.90;;;;;;5151805;23;20044;-83
2023/01/12 01:19:35;;;;;;;39.83;5.80;;;7.10;99.90;;;;;;4844000;29;20117;-83
2023/01/12 01:22:01;;;;;;;27.17;4.93;;;7.00;99.90;;;;;;4845801;29;20064;-83
2023/01/12 01:24:29;;;;;;;38.58;6.93;;;7.10;99.90;;;;;;4845654;29;20058;-83
2023/01/12 01:26:58;;;;;;;35.35;5.55;;;7.00;99.90;;;;;;4845328;29;20049;-83
2023/01/12 01:31:59;;;;;;;45.10;5.65;;;7.00;99.90;;;;;;5232365;23;20059;-83
2023/01/12 01:37:00;;;;;;;41.78;7.18;;;7.10;99.90;;;;;;5330875;23;20062;-83
2023/01/12 01:39:25;;;;;;;43.50;4.55;;;7.20;99.90;;;;;;4958296;28;20051;-84
2023/01/12 01:45:29;;;;;;;40.55;5.07;;;7.10;99.90;;;;;;5803700;23;20055;-83
2023/01/12 02:02:16;;;;;;;41.05;6.38;;;7.20;99.90;;;;;;5267672;23;20047;-83
2023/01/12 02:04:41;;;;;;;37.90;5.38;;;7.30;99.90;;;;;;4957602;28;20561;-83
2023/01/12 02:07:11;;;;;;;40.35;4.93;;;7.30;99.90;;;;;;4957584;28;20121;-83
2023/01/12 02:09:37;;;;;;;29.38;5.22;;;7.30;99.90;;;;;;4957500;28;20051;-83
2023/01/12 02:17:41;;;;;;;48.33;7.07;;;7.50;99.90;;;;;;4957441;28;20138;-83
2023/01/12 02:20:39;;;;;;;46.83;5.60;;;7.40;99.90;;;;;;4957368;28;20058;-83
2023/01/12 02:23:16;;;;;;;49.88;5.75;;;7.40;99.90;;;;;;4975019;28;20050;-83
2023/01/12 02:26:12;;;;;;;42.15;7.05;;;7.40;99.90;;;;;;4957730;28;20051;-83
2023/01/12 02:28:57;;;;;;;37.40;5.55;;;7.50;99.90;;;;;;4957680;28;20078;-83
2023/01/12 02:31:41;;;;;;;48.53;7.32;;;7.50;99.90;;;;;;4954710;28;20054;-83
2023/01/12 02:34:09;;;;;;;43.03;7.18;;;7.50;99.90;;;;;;4957811;28;20118;-83
2023/01/12 02:39:18;;;;;;;42.58;6.35;;;7.50;99.90;;;;;;4934863;29;20056;-84
2023/01/12 02:44:59;;;;;;;42.30;6.82;;;7.60;99.90;;;;;;4918957;29;20087;-84
2023/01/12 02:47:47;;;;;;;49.63;7.28;;;7.70;99.90;;;;;;5236139;23;20043;-83
2023/01/12 02:50:19;;;;;;;50.63;7.05;;;7.60;99.90;;;;;;4957247;28;20051;-84
2023/01/12 02:52:51;;;;;;;49.90;6.23;;;7.70;99.90;;;;;;4957390;28;20125;-84
2023/01/12 02:55:21;;;;;;;47.30;6.60;;;7.60;99.90;;;;;;4957183;28;20051;-85
2023/01/12 02:57:57;;;;;;;40.60;6.40;;;7.70;99.90;;;;;;4957561;28;20046;-85
2023/01/12 03:00:23;;;;;;;44.78;7.10;;;7.70;99.90;;;;;;4957313;28;20043;-84
2023/01/12 03:02:54;;;;;;;57.15;6.75;;;7.80;99.90;;;;;;4973474;28;20054;-84
2023/01/12 03:05:20;;;;;;;35.63;5.60;;;7.90;99.90;;;;;;4959048;28;20130;-84
2023/01/12 03:07:50;;;;;;;37.92;7.03;;;7.90;99.90;;;;;;4978284;28;20157;-84
2023/01/12 03:10:42;;;;;;;50.97;8.35;;;7.90;99.90;;;;;;4961228;28;20054;-85
2023/01/12 03:13:12;;;;;;;53.92;8.98;;;7.90;99.90;;;;;;4960775;28;20054;-84
2023/01/12 03:15:45;;;;;;;55.65;8.90;;;8.00;99.90;;;;;;4960761;28;20042;-85
2023/01/12 03:18:19;;;;;;;60.67;8.73;;;7.80;99.90;;;;;;4960680;28;20134;-85
2023/01/12 03:20:58;;;;;;;48.83;7.90;;;8.00;99.90;;;;;;5304610;23;20080;-85
2023/01/12 03:23:34;;;;;;;53.25;8.75;;;8.00;99.90;;;;;;4959260;28;20055;-85
2023/01/12 03:26:07;;;;;;;57.88;9.05;;;8.00;99.90;;;;;;4960430;28;20035;-85
2023/01/12 03:28:37;;;;;;;65.60;11.13;;;8.00;99.90;;;;;;4960755;28;20042;-85
2023/01/12 03:36:37;;;;;;;54.78;9.38;;;8.00;99.90;;;;;;4976272;28;20061;-82
2023/01/12 03:39:15;;;;;;;48.40;9.90;;;8.10;99.90;;;;;;4960159;28;20125;-82
2023/01/12 03:44:33;;;;;;;56.50;9.25;;;8.10;99.90;;;;;;5198139;23;20109;-83
2023/01/12 03:47:23;;;;;;;43.60;9.57;;;8.00;99.90;;;;;;4960448;28;20051;-83
2023/01/12 03:50:05;;;;;;;69.72;11.38;;;8.10;99.90;;;;;;4977587;28;20061;-83
2023/01/12 03:52:37;;;;;;;51.20;9.53;;;8.10;99.90;;;;;;4960035;28;20030;-84
2023/01/12 03:55:06;;;;;;;71.57;9.73;;;8.20;99.90;;;;;;4960122;28;20047;-84
2023/01/12 03:57:33;;;;;;;49.22;8.10;;;8.20;99.90;;;;;;4960104;28;20105;-84
2023/01/12 04:00:01;;;;;;;51.05;8.20;;;8.10;99.90;;;;;;4977211;28;20486;-84
2023/01/12 04:02:30;;;;;;;49.67;8.52;;;8.20;99.90;;;;;;4960214;28;20051;-85
2023/01/12 04:04:57;;;;;;;53.40;8.55;;;8.10;99.90;;;;;;4960297;28;20158;-85
2023/01/12 04:07:29;;;;;;;45.38;7.82;;;8.20;99.90;;;;;;4960036;28;20130;-85
2023/01/12 04:09:57;;;;;;;41.70;8.85;;;8.20;99.90;;;;;;4959808;28;20053;-85
2023/01/12 04:12:23;;;;;;;51.38;7.28;;;8.20;99.90;;;;;;4959848;28;20043;-86
2023/01/12 04:14:49;;;;;;;49.05;8.68;;;8.20;99.90;;;;;;4959939;28;20498;-85
2023/01/12 04:17:23;;;;;;;51.78;7.32;;;8.20;99.90;;;;;;4958851;28;20063;-85
2023/01/12 04:22:43;;;;;;;55.90;7.20;;;8.10;99.90;;;;;;6081782;23;20030;-84
2023/01/12 04:25:17;;;;;;;50.85;8.55;;;8.20;99.90;;;;;;4958658;28;20510;-86
2023/01/12 04:28:11;;;;;;;39.22;5.07;;;8.20;99.90;;;;;;4959878;28;20070;-87
2023/01/12 04:33:16;;;;;;;45.03;6.53;;;8.20;99.90;;;;;;6009587;23;19917;-86
2023/01/12 04:36:37;;;;;;;44.92;6.00;;;8.10;99.90;;;;;;4959333;28;20050;-87
2023/01/12 04:39:18;;;;;;;48.47;6.10;;;8.20;99.90;;;;;;4959349;28;20131;-86
2023/01/12 04:41:44;;;;;;;43.45;6.53;;;8.20;99.90;;;;;;4959331;28;20046;-87
2023/01/12 04:44:09;;;;;;;47.70;7.45;;;8.10;99.90;;;;;;4959307;28;20141;-86
2023/01/12 04:46:35;;;;;;;38.35;6.28;;;8.20;99.90;;;;;;4959016;28;20518;-85
2023/01/12 04:49:04;;;;;;;34.53;5.18;;;8.10;99.90;;;;;;4976411;28;20042;-86
2023/01/12 04:51:30;;;;;;;47.55;4.35;;;8.20;99.90;;;;;;4959209;28;20427;-86
2023/01/12 04:53:56;;;;;;;36.72;5.30;;;8.20;99.90;;;;;;4959343;28;20047;-86
2023/01/12 05:24:41;;;;;;;34.08;5.07;;;8.00;99.90;;;;;;5540838;23;20311;-85
2023/01/12 05:27:06;;;;;;;32.67;5.93;;;8.00;99.90;;;;;;4958058;28;20105;-85
2023/01/12 05:29:32;;;;;;;25.52;4.35;;;8.10;99.90;;;;;;4957792;28;20131;-86
2023/01/12 05:31:57;;;;;;;18.17;5.07;;;8.10;99.90;;;;;;4958601;28;20092;-86
2023/01/12 05:34:23;;;;;;;23.83;4.43;;;8.10;99.90;;;;;;4958107;28;20415;-86
2023/01/12 05:39:44;;;;;;;14.30;3.38;;;8.10;99.90;;;;;;5138330;23;20051;-86
2023/01/12 05:44:53;;;;;;;14.20;2.83;;;8.20;99.90;;;;;;4900959;29;20055;-85
2023/01/12 05:52:30;;;;;;;10.10;2.53;;;8.10;99.90;;;;;;5812555;23;20054;-85
2023/01/12 05:54:58;;;;;;;9.60;3.60;;;8.20;99.90;;;;;;4957870;28;20047;-85
2023/01/12 06:05:10;;;;;;;17.50;3.30;;;8.20;99.90;;;;;;6027788;23;20025;-84
2023/01/12 07:01:15;;;;;;;64.43;8.07;;;8.90;99.90;;;;;;5154458;23;20047;-84
2023/01/12 07:03:41;;;;;;;52.47;6.25;;;9.10;99.90;;;;;;4980909;28;20043;-83
2023/01/12 07:06:07;;;;;;;58.78;7.45;;;9.00;99.90;;;;;;4980954;28;20043;-84
2023/01/12 07:08:32;;;;;;;78.82;8.90;;;9.20;99.90;;;;;;4980569;28;20047;-83
2023/01/12 07:11:07;;;;;;;51.67;7.22;;;9.30;99.90;;;;;;4980998;28;20119;-83
2023/01/12 07:13:35;;;;;;;50.60;7.30;;;9.40;99.90;;;;;;4980875;28;20498;-83
2023/01/12 07:16:04;;;;;;;77.72;9.77;;;9.30;99.90;;;;;;4963315;28;20042;-83
2023/01/12 07:18:30;;;;;;;56.83;8.38;;;9.40;99.90;;;;;;4963581;28;20049;-83
2023/01/12 07:21:06;;;;;;;63.25;8.50;;;9.40;99.90;;;;;;4980480;28;20368;-83
2023/01/12 07:23:34;;;;;;;65.68;9.85;;;9.50;99.90;;;;;;4980677;28;20046;-82
2023/01/12 07:25:59;;;;;;;66.22;6.95;;;9.50;99.90;;;;;;4980628;28;20479;-83
2023/01/12 07:28:30;;;;;;;55.22;6.57;;;9.50;99.90;;;;;;4980676;28;20049;-83
2023/01/12 07:33:33;;;;;;;51.80;7.97;;;9.50;99.90;;;;;;5177827;23;20055;-83
2023/01/12 07:36:01;;;;;;;48.47;6.63;;;9.70;99.90;;;;;;4963070;28;20062;-83
2023/01/12 07:38:28;;;;;;;55.25;6.95;;;9.50;99.90;;;;;;4960626;28;20105;-83
2023/01/12 07:41:00;;;;;;;46.35;6.20;;;9.60;99.90;;;;;;4980739;28;20047;-83
2023/01/12 07:43:26;;;;;;;47.88;6.72;;;9.60;99.90;;;;;;4963234;28;20055;-83
2023/01/12 07:45:59;;;;;;;37.17;5.30;;;9.60;99.90;;;;;;4980266;28;20117;-82
2023/01/12 07:48:28;;;;;;;51.78;6.45;;;9.70;99.90;;;;;;4963197;28;20047;-82
2023/01/12 07:50:58;;;;;;;46.92;7.22;;;9.60;99.90;;;;;;4979123;28;20606;-82
2023/01/12 07:53:23;;;;;;;60.40;6.53;;;9.70;99.90;;;;;;4977040;28;20442;-82
2023/01/12 08:02:15;;;;;;;37.17;6.40;;;9.60;99.90;;;;;;4881996;29;20524;-82
2023/01/12 08:04:42;;;;;;;40.30;6.60;;;9.60;99.90;;;;;;4883949;29;20049;-82
2023/01/12 08:07:07;;;;;;;54.72;8.45;;;9.60;99.90;;;;;;4883932;29;20063;-82
2023/01/12 08:09:33;;;;;;;37.60;8.10;;;9.70;99.90;;;;;;4883960;29;20049;-82
2023/01/12 08:11:59;;;;;;;57.33;7.78;;;9.70;99.90;;;;;;4883998;29;20069;-82
2023/01/12 08:14:29;;;;;;;42.47;6.03;;;9.80;99.90;;;;;;4900872;29;20045;-82
2023/01/12 08:17:00;;;;;;;39.53;6.38;;;9.80;99.90;;;;;;4900773;29;20135;-82
2023/01/12 08:19:30;;;;;;;47.30;7.10;;;9.90;99.90;;;;;;4900588;29;20041;-82
2023/01/12 08:22:15;;;;;;;52.85;6.88;;;9.80;99.90;;;;;;4900665;29;20044;-82
2023/01/12 08:24:46;;;;;;;59.08;6.28;;;9.90;99.90;;;;;;4900527;29;20072;-82
2023/01/12 08:27:12;;;;;;;49.67;7.40;;;9.80;99.90;;;;;;5019056;23;20074;-82
2023/01/12 08:29:43;;;;;;;58.17;7.82;;;9.80;99.90;;;;;;4976557;28;20085;-82
2023/01/12 08:32:10;;;;;;;56.45;7.97;;;9.80;99.90;;;;;;4975815;28;20117;-81
2023/01/12 08:34:41;;;;;;;42.67;6.70;;;9.90;99.90;;;;;;4959149;28;20046;-82
2023/01/12 08:37:10;;;;;;;54.45;6.45;;;9.90;99.90;;;;;;4976464;28;20093;-82
2023/01/12 08:39:36;;;;;;;42.15;6.10;;;9.90;99.90;;;;;;4976517;28;20043;-81
2023/01/12 08:55:32;;;;;;;47.38;5.20;;;9.90;99.90;;;;;;5524067;23;20606;-81
2023/01/12 09:05:29;;;;;;;57.00;7.07;;;9.90;99.90;;;;;;4955939;28;20050;-84
2023/01/12 09:18:37;;;;;;;59.60;6.13;;;10.10;99.90;;;;;;5715077;23;20093;-82
2023/01/12 09:21:08;;;;;;;42.35;6.68;;;10.00;99.90;;;;;;4975137;28;20541;-84
2023/01/12 09:23:34;;;;;;;37.17;5.25;;;10.10;99.90;;;;;;4974425;28;20050;-83
2023/01/12 09:26:14;;;;;;;33.50;5.10;;;10.10;99.90;;;;;;4975184;28;20129;-84
2023/01/12 09:28:44;;;;;;;50.95;7.55;;;10.10;99.90;;;;;;4975613;28;20043;-84
2023/01/12 09:31:21;;;;;;;46.17;7.35;;;10.10;99.90;;;;;;4975321;28;20055;-84
2023/01/12 09:33:47;;;;;;;43.58;6.13;;;10.10;99.90;;;;;;4957907;28;20039;-84
2023/01/12 09:36:15;;;;;;;38.90;6.53;;;10.20;99.90;;;;;;4957537;28;20419;-83
2023/01/12 09:38:43;;;;;;;44.28;7.63;;;10.30;99.90;;;;;;4975231;28;20042;-84
2023/01/12 09:41:09;;;;;;;44.08;6.40;;;10.10;99.90;;;;;;4958043;28;20117;-84
2023/01/12 09:57:06;;;;;;;48.65;6.85;;;10.20;99.90;;;;;;5395534;23;20054;-84
2023/01/12 09:59:51;;;;;;;42.50;5.43;;;10.20;99.90;;;;;;4957308;28;20050;-84
2023/01/12 10:02:16;;;;;;;52.55;7.43;;;10.20;99.90;;;;;;4957035;28;20465;-83
2023/01/12 10:04:43;;;;;;;29.63;5.00;;;10.20;99.90;;;;;;4957580;28;20471;-83
2023/01/12 10:07:15;;;;;;;45.00;5.63;;;10.10;99.90;;;;;;4974765;28;20051;-84
2023/01/12 10:09:41;;;;;;;38.53;5.15;;;10.10;99.90;;;;;;4957511;28;20042;-82
2023/01/12 10:12:18;;;;;;;37.30;4.97;;;10.10;99.90;;;;;;4974831;28;20119;-83
2023/01/12 10:14:58;;;;;;;56.05;6.15;;;10.20;99.90;;;;;;4974091;28;20160;-83
2023/01/12 10:17:49;;;;;;;52.60;6.65;;;10.10;99.90;;;;;;4957151;28;20046;-83
2023/01/12 10:20:41;;;;;;;30.55;5.20;;;10.00;99.90;;;;;;4968744;28;20047;-83
2023/01/12 10:23:07;;;;;;;43.03;5.07;;;10.00;99.90;;;;;;4974257;28;20047;-81
2023/01/12 10:25:50;;;;;;;42.90;4.90;;;9.90;99.90;;;;;;4972813;28;20100;-81
2023/01/12 10:28:35;;;;;;;38.67;5.05;;;9.80;99.90;;;;;;4957013;28;20051;-81
2023/01/12 10:31:01;;;;;;;42.47;6.50;;;9.80;99.90;;;;;;4955771;28;20442;-81
2023/01/12 10:33:33;;;;;;;46.33;5.75;;;9.90;99.90;;;;;;4957068;28;20061;-81
2023/01/12 10:36:18;;;;;;;36.78;7.43;;;9.90;99.90;;;;;;4974096;28;20441;-81
2023/01/12 10:38:59;;;;;;;46.80;6.82;;;9.80;99.90;;;;;;4974067;28;20123;-81
2023/01/12 10:41:36;;;;;;;44.05;5.28;;;9.80;99.90;;;;;;4956841;28;20093;-80
2023/01/12 10:44:12;;;;;;;46.90;6.72;;;9.90;99.90;;;;;;4973903;28;20051;-81
2023/01/12 10:52:49;;;;;;;56.83;7.13;;;9.80;99.90;;;;;;4942790;29;20102;-82
2023/01/12 10:58:43;;;;;;;56.75;5.97;;;9.80;99.90;;;;;;4947340;29;20122;-82
2023/01/12 11:19:18;;;;;;;48.50;5.55;;;9.90;99.90;;;;;;4954653;29;20090;-83
2023/01/12 11:22:15;;;;;;;48.25;6.00;;;9.90;99.90;;;;;;4937916;29;20520;-81
2023/01/12 11:25:02;;;;;;;28.52;4.50;;;9.90;99.90;;;;;;4936836;29;20086;-82
2023/01/12 11:27:42;;;;;;;29.52;4.03;;;9.90;99.90;;;;;;4940041;29;20071;-84
2023/01/12 11:30:25;;;;;;;30.73;4.35;;;9.80;99.90;;;;;;4941179;29;20509;-82
2023/01/12 11:33:14;;;;;;;42.78;5.60;;;9.80;99.90;;;;;;5053606;23;20058;-82
2023/01/12 11:35:52;;;;;;;35.17;5.38;;;9.90;99.90;;;;;;4960117;28;20383;-82
2023/01/12 11:45:15;;;;;;;36.75;5.45;;;9.80;99.90;;;;;;4977410;28;20525;-82
2023/01/12 11:47:56;;;;;;;37.40;5.15;;;9.90;99.90;;;;;;4960152;28;20114;-82
2023/01/12 11:50:39;;;;;;;37.10;4.72;;;9.90;99.90;;;;;;4977412;28;20067;-82
2023/01/12 12:01:05;;;;;;;43.42;5.40;;;9.80;99.90;;;;;;4917699;29;20087;-82
2023/01/12 12:07:15;;;;;;;54.38;5.78;;;10.00;99.90;;;;;;4913830;23;20063;-81
2023/01/12 12:32:54;;;;;;;30.38;3.50;;;10.40;99.90;;;;;;4959152;28;20138;-82
2023/01/12 12:48:11;;;;;;;522.08;216.15;;;10.60;99.90;;;;;;5511757;23;20086;-82
2023/01/12 12:51:02;;;;;;;1025.65;478.23;;;10.60;99.90;;;;;;4958647;28;20086;-82
2023/01/12 12:53:48;;;;;;;580.63;265.73;;;10.60;99.90;;;;;;4970364;28;20062;-82
2023/01/12 12:56:20;;;;;;;160.80;70.50;;;10.60;99.90;;;;;;4958784;28;20055;-82
2023/01/12 12:58:50;;;;;;;119.57;50.40;;;10.60;99.90;;;;;;4976329;28;20398;-82
2023/01/12 13:01:22;;;;;;;188.90;87.57;;;10.70;99.90;;;;;;4976109;28;20340;-82
2023/01/12 13:04:03;;;;;;;53.40;21.42;;;10.70;99.90;;;;;;4976185;28;20075;-82
2023/01/12 13:15:28;;;;;;;422.20;183.70;;;10.70;99.90;;;;;;5555810;23;20503;-81
2023/01/12 13:17:55;;;;;;;177.20;78.22;;;10.60;99.90;;;;;;4975497;28;20145;-82
2023/01/12 13:20:49;;;;;;;540.47;260.15;;;10.60;99.90;;;;;;4958695;28;20047;-82
2023/01/12 13:31:01;;;;;;;293.85;138.27;;;10.70;99.90;;;;;;5069672;23;20510;-82
2023/01/12 13:33:27;;;;;;;852.17;404.02;;;10.60;99.90;;;;;;4975701;28;20054;-82
2023/01/12 13:36:01;;;;;;;143.40;54.25;;;10.70;99.90;;;;;;4975635;28;20043;-82
2023/01/12 13:38:51;;;;;;;164.52;76.07;;;10.70;99.90;;;;;;4975499;28;20491;-82
2023/01/12 13:44:15;;;;;;;42.67;8.57;;;10.60;99.90;;;;;;4957761;28;20422;-82
2023/01/12 13:46:50;;;;;;;68.05;29.40;;;10.80;99.90;;;;;;4958274;28;20487;-82
2023/01/12 13:49:33;;;;;;;1025.45;377.77;;;10.60;99.90;;;;;;4974511;28;20042;-82
2023/01/12 13:52:01;;;;;;;479.63;241.43;;;10.70;99.90;;;;;;4975451;28;20077;-82
2023/01/12 13:54:28;;;;;;;333.17;146.68;;;10.70;99.90;;;;;;4974907;28;20047;-82
2023/01/12 13:57:02;;;;;;;153.43;56.05;;;10.70;99.90;;;;;;4975155;28;20047;-82
2023/01/12 14:02:11;;;;;;;116.85;47.80;;;10.70;99.90;;;;;;5582969;23;20450;-82
2023/01/12 14:04:43;;;;;;;51.15;13.43;;;10.60;99.90;;;;;;4957677;28;20426;-82
2023/01/12 14:07:12;;;;;;;43.13;12.07;;;10.70;99.90;;;;;;4957512;28;20097;-82
2023/01/12 14:10:18;;;;;;;60.53;15.20;;;10.70;99.90;;;;;;4975003;28;20305;-82
2023/01/12 14:18:27;;;;;;;51.55;10.30;;;10.60;99.90;;;;;;4957569;28;20495;-82
2023/01/12 14:20:58;;;;;;;48.22;9.82;;;10.60;99.90;;;;;;4957806;28;20042;-82
2023/01/12 14:23:32;;;;;;;52.17;18.83;;;10.60;99.90;;;;;;4957444;28;20401;-82
2023/01/12 14:26:10;;;;;;;56.30;14.18;;;10.70;99.90;;;;;;4974530;28;20499;-82
2023/01/12 14:28:47;;;;;;;42.08;12.27;;;10.70;99.90;;;;;;4957356;28;20394;-82
2023/01/12 14:31:40;;;;;;;26.42;7.45;;;10.60;99.90;;;;;;4974423;28;20042;-82
2023/01/12 14:34:22;;;;;;;97.85;48.78;;;10.60;99.90;;;;;;4974417;28;20157;-82
2023/01/12 14:36:48;;;;;;;112.95;53.55;;;10.60;99.90;;;;;;4957129;28;20086;-82
2023/01/12 14:39:19;;;;;;;128.10;65.00;;;10.60;99.90;;;;;;4957266;28;20043;-82
2023/01/12 14:47:23;;;;;;;78.20;19.15;;;10.60;99.90;;;;;;5036505;23;20082;-82
2023/01/12 14:49:49;;;;;;;40.35;13.85;;;10.60;99.90;;;;;;5356457;23;20498;-82
2023/01/12 14:52:30;;;;;;;28.73;8.23;;;10.40;99.90;;;;;;4971487;28;20047;-82
2023/01/12 14:59:28;;;;;;;;;;;;;;;;;;;;;
2023/01/12 15:02:40;;;;;;;19.83;6.28;;;10.40;99.90;;;;;;4942676;29;20053;-82
2023/01/12 15:05:08;;;;;;;21.52;3.78;;;10.50;99.90;;;;;;4959067;29;20068;-81
2023/01/12 15:26:33;;;;;;;15.00;3.65;;;10.20;99.90;;;;;;4960443;28;20050;-81
2023/01/12 15:28:59;;;;;;;13.73;3.70;;;10.30;99.90;;;;;;4977953;28;20093;-81
2023/01/12 15:31:28;;;;;;;15.15;4.70;;;10.20;99.90;;;;;;4977963;28;20043;-81
2023/01/12 15:33:55;;;;;;;9.63;3.80;;;10.20;99.90;;;;;;4977650;28;20112;-82
2023/01/12 15:40:23;;;;;;;18.95;7.45;;;10.20;99.90;;;;;;4960359;28;20590;-82
2023/01/12 15:43:14;;;;;;;19.67;5.60;;;10.10;99.90;;;;;;4977591;28;20051;-83
2023/01/12 15:55:38;;;;;;;46.92;9.88;;;10.10;99.90;;;;;;5350172;23;20058;-82
2023/01/12 15:58:04;;;;;;;52.58;12.02;;;10.20;99.90;;;;;;4977221;28;20521;-82
2023/01/12 16:00:30;;;;;;;40.90;10.43;;;10.10;99.90;;;;;;4977440;28;20062;-82
2023/01/12 16:02:55;;;;;;;44.80;10.00;;;10.20;99.90;;;;;;4977291;28;20442;-83
2023/01/12 16:13:06;;;;;;;45.65;11.35;;;10.20;99.90;;;;;;5595809;23;20035;-82
2023/01/12 16:15:34;;;;;;;57.75;11.90;;;10.20;99.90;;;;;;4959749;28;20062;-82
2023/01/12 16:18:02;;;;;;;57.65;10.60;;;10.20;99.90;;;;;;4976965;28;20043;-82
2023/01/12 16:20:28;;;;;;;48.20;8.00;;;10.10;99.90;;;;;;4977052;28;20058;-82
2023/01/12 16:23:26;;;;;;;43.95;8.57;;;10.30;99.90;;;;;;5517243;23;20054;-82
2023/01/12 16:25:59;;;;;;;50.75;8.27;;;10.30;99.90;;;;;;4959699;28;20066;-82
2023/01/12 16:28:25;;;;;;;49.83;12.02;;;10.10;99.90;;;;;;4959773;28;20043;-82
2023/01/12 16:31:03;;;;;;;47.10;11.02;;;10.20;99.90;;;;;;4959063;28;20058;-82
2023/01/12 16:33:30;;;;;;;46.03;9.02;;;10.10;99.90;;;;;;4959376;28;20042;-81
2023/01/12 16:36:00;;;;;;;44.22;8.57;;;10.10;99.90;;;;;;4976649;28;20051;-81
2023/01/12 16:38:26;;;;;;;36.42;9.95;;;10.20;99.90;;;;;;4976748;28;20093;-81
2023/01/12 16:40:52;;;;;;;43.70;11.82;;;10.10;99.90;;;;;;4959022;28;20130;-81
2023/01/12 16:43:22;;;;;;;29.73;8.30;;;10.10;99.90;;;;;;4959383;28;20047;-81
2023/01/12 16:45:49;;;;;;;30.70;6.80;;;10.00;99.90;;;;;;4976525;28;20053;-81
2023/01/12 16:48:16;;;;;;;22.95;6.13;;;10.20;99.90;;;;;;4976791;28;20043;-82
2023/01/12 16:50:42;;;;;;;27.88;6.13;;;10.00;99.90;;;;;;4976563;28;20174;-81
2023/01/12 16:53:12;;;;;;;23.35;8.50;;;10.10;99.90;;;;;;4976607;28;20097;-82
2023/01/12 16:55:38;;;;;;;31.80;6.43;;;10.10;99.90;;;;;;4976220;28;20042;-82
2023/01/12 16:58:09;;;;;;;25.38;5.05;;;10.10;99.90;;;;;;4975177;28;20043;-81
2023/01/12 17:00:35;;;;;;;33.67;6.30;;;10.10;99.90;;;;;;4976093;28;20082;-82
2023/01/12 17:03:01;;;;;;;22.80;6.18;;;10.10;99.90;;;;;;4958900;28;20110;-81
2023/01/12 17:05:28;;;;;;;28.33;5.90;;;10.10;99.90;;;;;;4976034;28;20130;-81
2023/01/12 17:27:27;;;;;;;36.45;7.32;;;10.10;99.90;;;;;;4975689;28;20027;-81
2023/01/12 17:37:57;;;;;;;33.67;9.27;;;10.20;99.90;;;;;;4974676;28;20097;-82
2023/01/12 17:40:25;;;;;;;39.95;8.98;;;10.10;99.90;;;;;;4958084;28;20461;-82
2023/01/12 17:43:13;;;;;;;51.92;10.20;;;10.20;99.90;;;;;;4975336;28;20122;-82
2023/01/12 17:45:43;;;;;;;28.15;6.55;;;10.20;99.90;;;;;;4949102;29;20059;-82
2023/01/12 17:48:10;;;;;;;27.05;5.40;;;10.10;99.90;;;;;;4971575;28;20046;-82
2023/01/12 17:50:40;;;;;;;34.75;6.05;;;10.30;99.90;;;;;;4957952;28;20053;-82
2023/01/12 17:53:08;;;;;;;45.30;7.40;;;10.20;99.90;;;;;;4975401;28;20077;-82
2023/01/12 17:55:37;;;;;;;42.78;7.30;;;10.30;99.90;;;;;;4975342;28;20123;-82
2023/01/12 17:58:03;;;;;;;53.53;7.05;;;10.20;99.90;;;;;;4975329;28;20043;-82
2023/01/12 18:00:30;;;;;;;32.20;6.22;;;10.30;99.90;;;;;;4975257;28;20050;-82
2023/01/12 18:02:56;;;;;;;43.45;7.28;;;10.20;99.90;;;;;;4975104;28;20126;-82
2023/01/12 18:05:26;;;;;;;35.28;5.90;;;10.30;99.90;;;;;;4975032;28;20417;-82
2023/01/12 18:07:52;;;;;;;40.63;5.45;;;10.30;99.90;;;;;;4975406;28;20047;-82
2023/01/12 18:10:17;;;;;;;33.53;5.63;;;10.50;99.90;;;;;;4975026;28;20047;-82
2023/01/12 18:12:43;;;;;;;37.08;7.85;;;10.40;99.90;;;;;;4975150;28;20053;-82
2023/01/12 18:15:09;;;;;;;41.55;8.43;;;10.50;99.90;;;;;;4975387;28;20149;-82
2023/01/12 18:17:35;;;;;;;44.47;6.45;;;10.40;99.90;;;;;;4975080;28;20047;-82
2023/01/12 18:23:12;;;;;;;32.63;5.28;;;10.40;99.90;;;;;;5355377;23;20042;-82
2023/01/12 18:45:03;;;;;;;38.75;6.50;;;10.40;99.90;;;;;;5634948;23;20062;-82
2023/01/12 18:48:43;;;;;;;27.77;5.57;;;10.40;99.90;;;;;;4957359;28;20130;-82
2023/01/12 18:55:05;;;;;;;44.20;6.85;;;10.40;99.90;;;;;;4957207;28;20051;-82
2023/01/12 18:57:32;;;;;;;38.08;7.75;;;10.50;99.90;;;;;;4956954;28;20058;-82
2023/01/12 19:00:11;;;;;;;40.42;7.60;;;10.50;99.90;;;;;;4974627;28;20046;-82
2023/01/12 19:08:02;;;;;;;47.40;7.55;;;10.50;99.90;;;;;;4953895;29;20051;-81
2023/01/12 19:10:28;;;;;;;49.92;7.97;;;10.40;99.90;;;;;;4937972;29;20055;-82
2023/01/12 19:18:27;;;;;;;41.53;6.03;;;10.40;99.90;;;;;;4961891;23;20047;-81
2023/01/12 19:28:31;;;;;;;40.60;6.95;;;10.40;99.90;;;;;;4951012;28;20069;-82
2023/01/12 19:29:12;;;;;;;51.35;6.88;;;10.40;99.90;;;;;;4956951;28;20051;-82
2023/01/12 19:31:38;;;;;;;38.78;7.10;;;10.30;99.90;;;;;;4974372;28;20057;-82
2023/01/12 19:34:04;;;;;;;47.95;6.68;;;10.50;99.90;;;;;;4956902;28;20054;-81
2023/01/12 19:36:29;;;;;;;53.65;10.57;;;10.30;99.90;;;;;;4974309;28;20085;-82
2023/01/12 19:38:57;;;;;;;34.00;6.95;;;10.40;99.90;;;;;;4956843;28;20081;-81
2023/01/12 19:47:06;;;;;;;51.92;7.40;;;10.30;99.90;;;;;;4934240;29;20058;-81
2023/01/12 19:49:31;;;;;;;41.60;6.53;;;10.30;99.90;;;;;;4922032;29;20047;-82
2023/01/12 19:52:03;;;;;;;32.47;6.05;;;10.40;99.90;;;;;;4922772;29;20054;-82
2023/01/12 19:54:31;;;;;;;44.60;5.75;;;10.40;99.90;;;;;;4922165;29;20072;-83
2023/01/12 19:57:25;;;;;;;45.83;8.93;;;10.40;99.90;;;;;;4921772;29;20491;-82
2023/01/12 20:00:46;;;;;;;28.15;5.60;;;10.30;99.90;;;;;;4908839;29;20094;-82
2023/01/12 20:03:18;;;;;;;49.38;7.80;;;10.40;99.90;;;;;;4921785;29;20131;-81
2023/01/12 20:09:24;;;;;;;36.58;6.13;;;10.40;99.90;;;;;;4955410;23;20101;-81
2023/01/12 20:12:34;;;;;;;59.67;8.13;;;10.40;99.90;;;;;;4977050;28;20059;-82
2023/01/12 20:17:57;;;;;;;;;;;10.30;99.90;;;;;;4984456;23;20142;-81
2023/01/12 20:20:22;;;;;;;35.20;4.68;;;10.30;99.90;;;;;;4959735;28;20017;-81
2023/01/12 20:22:49;;;;;;;44.08;5.88;;;10.40;99.90;;;;;;4959607;28;20185;-82
2023/01/12 20:25:22;;;;;;;43.30;6.68;;;10.40;99.90;;;;;;4959747;28;20122;-82
2023/01/12 20:27:48;;;;;;;;;;;10.40;99.90;;;;;;4977356;28;20495;-81
2023/01/12 20:30:18;;;;;;;40.53;5.32;;;10.30;99.90;;;;;;4976829;28;19931;-81
2023/01/12 20:32:50;;;;;;;45.90;6.13;;;10.30;99.90;;;;;;4976967;28;20043;-81
2023/01/12 20:35:20;;;;;;;51.08;5.55;;;10.30;99.90;;;;;;4959333;28;20134;-81
2023/01/12 20:37:45;;;;;;;40.95;5.28;;;10.30;99.90;;;;;;4976572;28;20557;-81
2023/01/12 20:40:12;;;;;;;38.60;5.75;;;10.30;99.90;;;;;;4959520;28;20050;-80
2023/01/12 20:42:38;;;;;;;39.30;6.05;;;10.40;99.90;;;;;;4976740;28;20495;-80
2023/01/12 20:45:06;;;;;;;39.65;7.03;;;10.30;99.90;;;;;;4959742;28;20053;-81
2023/01/12 20:47:32;;;;;;;36.47;8.30;;;10.30;99.90;;;;;;4976692;28;20050;-82
2023/01/12 20:50:24;;;;;;;43.30;7.68;;;10.20;99.90;;;;;;4976469;28;20046;-82
2023/01/12 20:53:09;;;;;;;49.25;6.65;;;10.30;99.90;;;;;;4959070;28;20402;-82
2023/01/12 20:56:06;;;;;;;63.60;7.18;;;10.20;99.90;;;;;;4959263;28;20057;-82
2023/01/12 21:02:39;;;;;;;48.65;7.07;;;10.20;99.90;;;;;;4976101;28;20053;-82
2023/01/12 21:08:38;;;;;;;29.10;7.03;;;10.10;99.90;;;;;;4983227;23;20063;-82
2023/01/12 21:11:33;;;;;;;37.90;5.53;;;10.20;99.90;;;;;;4962246;28;20105;-81
2023/01/12 21:14:05;;;;;;;41.88;6.85;;;10.10;99.90;;;;;;4958569;28;20054;-81
2023/01/12 21:16:32;;;;;;;41.00;4.85;;;10.20;99.90;;;;;;4958445;28;20082;-82
2023/01/12 21:18:58;;;;;;;38.97;6.03;;;10.20;99.90;;;;;;4991671;23;20065;-81
2023/01/12 21:21:24;;;;;;;48.22;7.63;;;10.20;99.90;;;;;;4958751;28;20043;-81
2023/01/12 21:23:49;;;;;;;52.90;6.80;;;10.10;99.90;;;;;;4975842;28;20049;-82
2023/01/12 21:26:15;;;;;;;39.55;7.47;;;10.10;99.90;;;;;;4975986;28;20053;-82
2023/01/12 21:32:26;;;;;;;47.95;8.68;;;10.10;99.90;;;;;;5665566;23;20121;-81
2023/01/12 21:34:52;;;;;;;36.80;4.68;;;10.10;99.90;;;;;;4975547;28;20105;-82
2023/01/12 21:37:28;;;;;;;41.33;5.68;;;10.10;99.90;;;;;;4958966;28;20525;-81
2023/01/12 21:39:57;;;;;;;47.58;6.50;;;10.00;99.90;;;;;;4975567;28;20101;-81
2023/01/12 21:45:22;;;;;;;47.97;7.05;;;10.10;99.90;;;;;;4957857;28;20567;-81
2023/01/12 21:47:48;;;;;;;49.08;5.72;;;10.00;99.90;;;;;;4975586;28;20066;-81
2023/01/12 21:52:40;;;;;;;47.58;6.45;;;9.80;99.90;;;;;;4980025;23;20145;-82
2023/01/12 21:55:10;;;;;;;38.17;4.68;;;9.80;99.90;;;;;;4975252;28;20498;-81